Time;durP1;ratioP1;P1;durP2;ratioP2;P2;SDS_P1;SDS_P2;PMS_P1;PMS_P2;Temp;Humidity;BMP_temperature;BMP_pressure;BME280_temperature;BME280_humidity;BME280_pressure;Samples;Min_cycle;Max_cycle;Signal;HPM_P1;HPM_P2
2023/03/05 00:00:14;;;;;;;0.20;0.20;;;;;;;;;;5048821;28;20031;-71
2023/03/05 00:02:40;;;;;;;1.95;1.85;;;;;;;;;;5048951;28;20021;-71
2023/03/05 00:05:06;;;;;;;0.30;0.30;;;;;;;;;;5047775;28;20499;-71
2023/03/05 00:07:32;;;;;;;0.30;0.30;;;;;;;;;;5048481;28;20488;-71
2023/03/05 00:09:58;;;;;;;0.30;0.30;;;;;;;;;;5030675;28;20021;-71
2023/03/05 00:12:24;;;;;;;49.00;2.92;;;;;;;;;;5046767;28;20415;-71
2023/03/05 00:14:49;;;;;;;0.30;0.30;;;;;;;;;;5047261;28;20021;-71
2023/03/05 00:17:14;;;;;;;0.20;0.20;;;;;;;;;;5051485;28;20029;-71
2023/03/05 00:19:40;;;;;;;0.20;0.20;;;;;;;;;;5052508;28;20025;-71
2023/03/05 00:22:06;;;;;;;0.95;0.95;;;;;;;;;;5052450;28;20067;-71
2023/03/05 00:24:31;;;;;;;3.00;2.80;;;;;;;;;;5037050;28;20388;-71
2023/03/05 00:26:57;;;;;;;1.05;1.05;;;;;;;;;;5055792;28;20037;-71
2023/03/05 00:29:22;;;;;;;0.17;0.17;;;;;;;;;;5054057;28;20039;-73
2023/03/05 00:31:48;;;;;;;0.85;0.85;;;;;;;;;;5055786;28;20048;-71
2023/03/05 00:34:15;;;;;;;0.88;0.88;;;;;;;;;;5065711;28;20109;-71
2023/03/05 00:36:45;;;;;;;0.13;0.13;;;;;;;;;;5042783;28;20029;-71
2023/03/05 00:39:11;;;;;;;1.00;0.95;;;;;;;;;;5057739;28;20032;-71
2023/03/05 00:41:37;;;;;;;0.50;0.50;;;;;;;;;;5075548;28;20064;-72
2023/03/05 00:44:02;;;;;;;2.83;1.05;;;;;;;;;;5066380;28;20068;-71
2023/03/05 00:46:28;;;;;;;1.77;1.67;;;;;;;;;;5054506;28;20025;-70
2023/03/05 00:48:56;;;;;;;1.70;1.33;;;;;;;;;;5059392;28;20381;-71
2023/03/05 00:51:21;;;;;;;0.80;0.80;;;;;;;;;;5064333;28;20116;-70
2023/03/05 00:53:48;;;;;;;0.10;0.10;;;;;;;;;;5058274;28;20033;-70
2023/03/05 00:56:13;;;;;;;0.45;0.45;;;;;;;;;;5068018;28;20356;-71
2023/03/05 00:58:38;;;;;;;1.88;1.67;;;;;;;;;;5066318;28;20039;-72
2023/03/05 01:01:04;;;;;;;0.10;0.10;;;;;;;;;;5044964;28;20036;-69
2023/03/05 01:03:30;;;;;;;0.20;0.20;;;;;;;;;;5065812;28;20049;-70
2023/03/05 01:05:56;;;;;;;0.10;0.10;;;;;;;;;;5072150;28;20078;-71
2023/03/05 01:08:22;;;;;;;0.20;0.20;;;;;;;;;;5070437;28;20028;-71
2023/03/05 01:10:47;;;;;;;0.10;0.10;;;;;;;;;;5057533;28;20059;-71
2023/03/05 01:13:13;;;;;;;0.52;0.52;;;;;;;;;;5063073;28;20032;-71
2023/03/05 01:15:38;;;;;;;0.20;0.20;;;;;;;;;;5073776;28;20029;-71
2023/03/05 01:18:03;;;;;;;1.15;0.95;;;;;;;;;;5063682;28;20032;-72
2023/03/05 01:20:29;;;;;;;0.75;0.60;;;;;;;;;;5062164;28;20029;-70
2023/03/05 01:22:55;;;;;;;0.73;0.73;;;;;;;;;;5053496;28;20064;-71
2023/03/05 01:25:20;;;;;;;0.30;0.30;;;;;;;;;;5053322;28;20025;-70
2023/03/05 01:27:46;;;;;;;0.30;0.30;;;;;;;;;;5052848;28;20041;-71
2023/03/05 01:30:12;;;;;;;0.10;0.10;;;;;;;;;;5051465;28;20063;-70
2023/03/05 01:32:37;;;;;;;1.35;1.25;;;;;;;;;;5052494;28;20049;-72
2023/03/05 01:35:04;;;;;;;0.35;0.35;;;;;;;;;;5050586;28;20119;-72
2023/03/05 01:37:29;;;;;;;0.50;0.50;;;;;;;;;;5053186;28;20039;-69
2023/03/05 01:39:55;;;;;;;0.75;0.75;;;;;;;;;;5053363;28;20033;-70
2023/03/05 01:42:20;;;;;;;0.20;0.20;;;;;;;;;;5054752;28;20029;-71
2023/03/05 01:45:06;;;;;;;0.10;0.10;;;;;;;;;;5053357;28;20503;-70
2023/03/05 01:47:32;;;;;;;0.30;0.30;;;;;;;;;;5054453;28;20078;-71
2023/03/05 01:49:58;;;;;;;0.10;0.10;;;;;;;;;;5053108;28;20049;-71
2023/03/05 01:52:24;;;;;;;0.15;0.15;;;;;;;;;;5053298;28;20491;-71
2023/03/05 01:54:51;;;;;;;0.10;0.10;;;;;;;;;;5052947;28;20028;-71
2023/03/05 01:57:20;;;;;;;0.20;0.20;;;;;;;;;;5053189;28;20078;-71
2023/03/05 01:59:47;;;;;;;0.20;0.20;;;;;;;;;;5053006;28;20036;-71
2023/03/05 02:02:13;;;;;;;0.20;0.20;;;;;;;;;;5054188;28;20477;-71
2023/03/05 02:04:49;;;;;;;0.43;0.43;;;;;;;;;;5054073;28;20036;-71
2023/03/05 02:07:15;;;;;;;0.10;0.10;;;;;;;;;;5052613;28;20040;-71
2023/03/05 02:09:41;;;;;;;0.10;0.10;;;;;;;;;;5052937;28;20381;-71
2023/03/05 02:12:07;;;;;;;0.10;0.10;;;;;;;;;;5067967;28;20035;-72
2023/03/05 02:14:33;;;;;;;1.85;1.75;;;;;;;;;;5073421;28;20107;-70
2023/03/05 02:16:59;;;;;;;0.10;0.10;;;;;;;;;;5072586;28;20028;-70
2023/03/05 02:19:24;;;;;;;0.43;0.43;;;;;;;;;;5073824;28;20115;-70
2023/03/05 02:21:50;;;;;;;0.30;0.30;;;;;;;;;;5073646;28;20090;-69
2023/03/05 02:24:17;;;;;;;7.45;6.75;;;;;;;;;;5056076;28;20041;-70
2023/03/05 02:26:43;;;;;;;0.20;0.20;;;;;;;;;;5072630;28;20035;-70
2023/03/05 02:29:11;;;;;;;0.73;0.70;;;;;;;;;;5063070;28;20025;-70
2023/03/05 02:31:37;;;;;;;1.35;1.35;;;;;;;;;;5052431;28;20060;-70
2023/03/05 02:34:05;;;;;;;0.15;0.15;;;;;;;;;;5053791;28;20021;-71
2023/03/05 02:36:30;;;;;;;31.45;28.73;;;;;;;;;;5052220;28;20039;-71
2023/03/05 02:38:56;;;;;;;0.10;0.10;;;;;;;;;;5052502;28;20036;-71
2023/03/05 02:41:23;;;;;;;0.22;0.22;;;;;;;;;;5035947;28;20104;-71
2023/03/05 02:43:49;;;;;;;0.82;0.82;;;;;;;;;;5052328;28;20128;-71
2023/03/05 02:46:15;;;;;;;3.25;3.05;;;;;;;;;;5052033;28;20132;-72
2023/03/05 02:48:40;;;;;;;0.30;0.30;;;;;;;;;;5053456;28;20516;-71
2023/03/05 02:51:09;;;;;;;1.75;1.65;;;;;;;;;;5052046;28;20472;-71
2023/03/05 02:53:35;;;;;;;1.17;1.00;;;;;;;;;;5035769;28;20036;-72
2023/03/05 02:56:01;;;;;;;0.10;0.10;;;;;;;;;;5053576;28;20052;-71
2023/03/05 02:58:26;;;;;;;0.20;0.20;;;;;;;;;;5052045;28;20029;-71
2023/03/05 03:00:52;;;;;;;0.10;0.10;;;;;;;;;;5053323;28;20029;-71
2023/03/05 03:03:17;;;;;;;1.23;1.20;;;;;;;;;;5052023;28;20052;-71
2023/03/05 03:05:43;;;;;;;21.90;8.60;;;;;;;;;;5049678;28;20503;-71
2023/03/05 03:08:09;;;;;;;0.20;0.20;;;;;;;;;;5073466;28;20028;-71
2023/03/05 03:10:34;;;;;;;0.15;0.15;;;;;;;;;;5073511;28;20032;-70
2023/03/05 03:13:00;;;;;;;0.30;0.30;;;;;;;;;;5072519;28;20048;-70
2023/03/05 03:15:25;;;;;;;0.75;0.75;;;;;;;;;;5072985;28;20167;-70
2023/03/05 03:17:50;;;;;;;0.22;0.22;;;;;;;;;;5073042;28;20029;-71
2023/03/05 03:20:16;;;;;;;0.73;0.63;;;;;;;;;;5073304;28;20025;-72
2023/03/05 03:22:43;;;;;;;0.90;0.85;;;;;;;;;;5071950;28;20040;-71
2023/03/05 03:25:09;;;;;;;0.10;0.10;;;;;;;;;;5073387;28;20036;-70
2023/03/05 03:27:35;;;;;;;1.58;1.48;;;;;;;;;;5071991;28;20054;-71
2023/03/05 03:30:03;;;;;;;2.05;1.40;;;;;;;;;;5073066;28;20539;-70
2023/03/05 03:32:29;;;;;;;0.17;0.17;;;;;;;;;;5073138;28;20485;-70
2023/03/05 03:34:54;;;;;;;0.35;0.35;;;;;;;;;;5071275;28;20043;-71
2023/03/05 03:37:20;;;;;;;1.27;1.17;;;;;;;;;;5071828;28;20487;-71
2023/03/05 03:39:45;;;;;;;0.30;0.30;;;;;;;;;;5072850;28;20032;-70
2023/03/05 03:42:11;;;;;;;0.10;0.10;;;;;;;;;;5063536;28;20021;-70
2023/03/05 03:44:36;;;;;;;1.45;1.35;;;;;;;;;;5052813;28;20426;-70
2023/03/05 03:47:01;;;;;;;0.85;0.85;;;;;;;;;;5052934;28;20033;-72
2023/03/05 03:49:27;;;;;;;0.35;0.35;;;;;;;;;;5052659;28;20435;-71
2023/03/05 03:51:56;;;;;;;0.10;0.10;;;;;;;;;;5052912;28;20029;-70
2023/03/05 03:54:22;;;;;;;;;;;;;;;;;;5035803;28;20025;-70
2023/03/05 03:56:47;;;;;;;0.10;0.10;;;;;;;;;;5051627;28;19996;-70
2023/03/05 03:59:13;;;;;;;0.10;0.10;;;;;;;;;;5064109;28;20056;-70
2023/03/05 04:01:38;;;;;;;0.10;0.10;;;;;;;;;;5074499;28;20029;-71
2023/03/05 04:04:04;;;;;;;0.10;0.10;;;;;;;;;;5055410;28;20370;-74
2023/03/05 04:06:30;;;;;;;5.68;5.22;;;;;;;;;;5052913;28;20625;-71
2023/03/05 04:08:55;;;;;;;0.05;0.05;;;;;;;;;;5052614;28;20024;-72
2023/03/05 04:11:21;;;;;;;0.35;0.35;;;;;;;;;;5052827;28;20464;-71
2023/03/05 04:13:46;;;;;;;0.30;0.30;;;;;;;;;;5052657;28;20083;-70
2023/03/05 04:16:12;;;;;;;0.10;0.10;;;;;;;;;;5052551;28;20033;-71
2023/03/05 04:18:38;;;;;;;2.28;2.08;;;;;;;;;;5051035;28;20025;-71
2023/03/05 04:21:04;;;;;;;0.30;0.30;;;;;;;;;;5052787;28;20109;-71
2023/03/05 04:23:29;;;;;;;0.20;0.20;;;;;;;;;;5051214;28;20049;-70
2023/03/05 04:25:55;;;;;;;0.15;0.15;;;;;;;;;;5052107;28;20553;-69
2023/03/05 04:28:20;;;;;;;0.75;0.50;;;;;;;;;;5052126;28;20017;-71
2023/03/05 04:30:46;;;;;;;0.40;0.40;;;;;;;;;;5052220;28;20025;-71
2023/03/05 04:33:11;;;;;;;0.10;0.10;;;;;;;;;;5052540;28;20055;-76
2023/03/05 04:35:37;;;;;;;0.10;0.10;;;;;;;;;;5050756;28;20530;-71
2023/03/05 04:38:02;;;;;;;0.15;0.15;;;;;;;;;;5051098;28;20025;-70
2023/03/05 04:40:28;;;;;;;0.93;0.93;;;;;;;;;;5050853;28;20029;-71
2023/03/05 04:42:53;;;;;;;0.38;0.38;;;;;;;;;;5052616;28;20032;-69
2023/03/05 04:45:19;;;;;;;0.10;0.10;;;;;;;;;;5051718;28;20025;-70
2023/03/05 04:47:44;;;;;;;0.10;0.10;;;;;;;;;;5051845;28;20028;-71
2023/03/05 04:50:10;;;;;;;0.10;0.10;;;;;;;;;;5033918;28;20037;-72
2023/03/05 04:52:40;;;;;;;1.45;1.25;;;;;;;;;;5034144;28;20025;-71
2023/03/05 04:55:06;;;;;;;1.20;1.15;;;;;;;;;;5050613;28;20136;-71
2023/03/05 04:57:31;;;;;;;1.98;1.88;;;;;;;;;;5050398;28;20128;-70
2023/03/05 04:59:57;;;;;;;0.10;0.10;;;;;;;;;;5051861;28;20040;-72
2023/03/05 05:02:22;;;;;;;0.22;0.22;;;;;;;;;;5051977;28;20914;-72
2023/03/05 05:04:51;;;;;;;5.45;5.15;;;;;;;;;;5050736;28;20041;-72
2023/03/05 05:07:17;;;;;;;0.85;0.52;;;;;;;;;;5049957;28;20025;-72
2023/03/05 05:09:42;;;;;;;4.00;3.70;;;;;;;;;;5051443;28;20508;-72
2023/03/05 05:12:09;;;;;;;0.10;0.10;;;;;;;;;;5051921;28;20025;-72
2023/03/05 05:14:34;;;;;;;4.43;1.58;;;;;;;;;;5051075;28;20045;-72
2023/03/05 05:17:03;;;;;;;0.80;0.55;;;;;;;;;;5067579;28;20025;-71
2023/03/05 05:19:29;;;;;;;1.07;1.00;;;;;;;;;;5069513;28;20059;-71
2023/03/05 05:21:55;;;;;;;4.85;3.00;;;;;;;;;;5069729;28;20290;-71
2023/03/05 05:24:20;;;;;;;0.95;0.95;;;;;;;;;;5071234;28;20048;-73
2023/03/05 05:26:45;;;;;;;1.25;1.15;;;;;;;;;;5069893;28;20039;-76
2023/03/05 05:29:11;;;;;;;1.00;1.00;;;;;;;;;;5071126;28;20024;-70
2023/03/05 05:31:36;;;;;;;0.52;0.52;;;;;;;;;;5070404;28;20495;-71
2023/03/05 05:34:02;;;;;;;0.93;0.93;;;;;;;;;;5070567;28;20032;-74
2023/03/05 05:36:27;;;;;;;0.20;0.20;;;;;;;;;;5070426;28;20029;-70
2023/03/05 05:38:53;;;;;;;2.25;2.15;;;;;;;;;;5070501;28;20029;-71
2023/03/05 05:41:18;;;;;;;0.10;0.10;;;;;;;;;;5070819;28;20317;-71
2023/03/05 05:43:44;;;;;;;0.10;0.10;;;;;;;;;;5070559;28;20036;-72
2023/03/05 05:46:11;;;;;;;1.05;0.95;;;;;;;;;;5066535;28;20037;-70
2023/03/05 05:48:36;;;;;;;2.08;1.88;;;;;;;;;;5050695;28;20127;-70
2023/03/05 05:51:06;;;;;;;0.93;0.93;;;;;;;;;;5050570;28;20154;-71
2023/03/05 05:53:31;;;;;;;0.10;0.10;;;;;;;;;;5048980;28;20119;-73
2023/03/05 05:55:57;;;;;;;0.22;0.22;;;;;;;;;;5050985;28;20159;-73
2023/03/05 05:58:22;;;;;;;0.40;0.40;;;;;;;;;;5049494;28;20040;-72
2023/03/05 06:00:47;;;;;;;0.10;0.10;;;;;;;;;;5050668;28;20421;-72
2023/03/05 06:03:13;;;;;;;0.10;0.10;;;;;;;;;;5050126;28;20076;-72
2023/03/05 06:05:39;;;;;;;0.47;0.47;;;;;;;;;;5048831;28;20033;-71
2023/03/05 06:08:05;;;;;;;0.22;0.22;;;;;;;;;;5062650;28;20037;-72
2023/03/05 06:10:30;;;;;;;0.20;0.20;;;;;;;;;;5070060;28;20028;-72
2023/03/05 06:12:55;;;;;;;0.13;0.13;;;;;;;;;;5052314;28;20086;-76
2023/03/05 06:15:21;;;;;;;0.52;0.45;;;;;;;;;;5068895;28;20020;-71
2023/03/05 06:17:47;;;;;;;0.28;0.28;;;;;;;;;;5070033;28;20060;-73
2023/03/05 06:20:13;;;;;;;3.03;2.83;;;;;;;;;;5069890;28;20024;-72
2023/03/05 06:22:38;;;;;;;0.43;0.40;;;;;;;;;;5064481;28;20085;-73
2023/03/05 06:25:05;;;;;;;0.30;0.30;;;;;;;;;;5048982;28;20041;-73
2023/03/05 06:27:30;;;;;;;2.28;2.15;;;;;;;;;;5061947;28;20024;-73
2023/03/05 06:29:56;;;;;;;0.10;0.10;;;;;;;;;;5069035;28;20019;-71
2023/03/05 06:32:21;;;;;;;0.38;0.38;;;;;;;;;;5048583;28;20564;-71
2023/03/05 06:34:47;;;;;;;5.68;1.55;;;;;;;;;;5048229;28;20032;-71
2023/03/05 06:37:13;;;;;;;0.15;0.15;;;;;;;;;;5049429;28;20028;-72
2023/03/05 06:39:38;;;;;;;0.17;0.17;;;;;;;;;;5049024;28;20025;-71
2023/03/05 06:42:04;;;;;;;0.20;0.20;;;;;;;;;;5050288;28;20055;-72
2023/03/05 06:44:29;;;;;;;4.00;2.92;;;;;;;;;;5050060;28;20037;-72
2023/03/05 06:46:54;;;;;;;5.20;3.35;;;;;;;;;;5050011;28;20049;-72
2023/03/05 06:49:20;;;;;;;0.30;0.30;;;;;;;;;;5049279;28;20028;-73
2023/03/05 06:51:45;;;;;;;0.30;0.30;;;;;;;;;;5048571;28;20432;-72
2023/03/05 06:54:12;;;;;;;0.30;0.30;;;;;;;;;;5049447;28;20381;-72
2023/03/05 06:56:39;;;;;;;0.40;0.40;;;;;;;;;;5049430;28;20380;-72
2023/03/05 06:59:04;;;;;;;0.47;0.47;;;;;;;;;;5050195;28;20009;-73
2023/03/05 07:01:30;;;;;;;1.67;1.58;;;;;;;;;;5048164;28;20040;-72
2023/03/05 07:03:59;;;;;;;3.97;3.40;;;;;;;;;;5048200;28;20393;-73
2023/03/05 07:06:26;;;;;;;4.07;2.72;;;;;;;;;;5049464;28;20044;-72
2023/03/05 07:08:53;;;;;;;1.27;1.20;;;;;;;;;;5048052;28;20468;-72
2023/03/05 07:11:20;;;;;;;1.13;1.02;;;;;;;;;;5049022;28;20114;-72
2023/03/05 07:13:48;;;;;;;0.20;0.20;;;;;;;;;;5049948;28;20094;-75
2023/03/05 07:16:15;;;;;;;2.00;1.70;;;;;;;;;;5032883;28;20119;-72
2023/03/05 07:18:41;;;;;;;0.47;0.47;;;;;;;;;;5053339;28;20476;-71
2023/03/05 07:21:07;;;;;;;0.10;0.10;;;;;;;;;;5031420;28;20053;-72
2023/03/05 07:23:33;;;;;;;1.73;1.60;;;;;;;;;;5060086;28;20048;-71
2023/03/05 07:26:02;;;;;;;0.28;0.28;;;;;;;;;;5049068;28;20033;-73
2023/03/05 07:28:28;;;;;;;2.03;1.85;;;;;;;;;;5049175;28;20029;-71
2023/03/05 07:30:55;;;;;;;0.60;0.60;;;;;;;;;;5054783;28;20021;-71
2023/03/05 07:33:20;;;;;;;0.32;0.32;;;;;;;;;;5048850;28;20102;-73
2023/03/05 07:35:45;;;;;;;0.90;0.88;;;;;;;;;;5056093;28;20067;-72
2023/03/05 07:38:11;;;;;;;0.13;0.13;;;;;;;;;;5053424;28;20028;-71
2023/03/05 07:40:37;;;;;;;0.63;0.63;;;;;;;;;;5053134;28;20040;-75
2023/03/05 07:43:02;;;;;;;0.35;0.35;;;;;;;;;;5054104;28;20025;-74
2023/03/05 07:45:32;;;;;;;0.30;0.30;;;;;;;;;;5041061;28;20029;-74
2023/03/05 07:47:57;;;;;;;0.50;0.50;;;;;;;;;;5034886;28;20083;-74
2023/03/05 07:50:23;;;;;;;2.65;2.45;;;;;;;;;;5051574;28;20142;-74
2023/03/05 07:52:48;;;;;;;0.10;0.10;;;;;;;;;;5068333;28;20387;-74
2023/03/05 07:55:14;;;;;;;0.10;0.10;;;;;;;;;;5071482;28;20040;-74
2023/03/05 07:57:39;;;;;;;0.75;0.75;;;;;;;;;;5071701;28;20012;-74
2023/03/05 08:00:06;;;;;;;0.10;0.10;;;;;;;;;;5071910;28;20460;-74
2023/03/05 08:02:37;;;;;;;0.22;0.22;;;;;;;;;;5072560;28;20028;-74
2023/03/05 08:05:02;;;;;;;3.03;1.55;;;;;;;;;;5071306;28;20114;-73
2023/03/05 08:07:27;;;;;;;0.73;0.73;;;;;;;;;;5071275;28;20487;-74
2023/03/05 08:09:53;;;;;;;0.10;0.10;;;;;;;;;;5071194;28;20541;-74
2023/03/05 08:12:18;;;;;;;0.95;0.77;;;;;;;;;;5071360;28;20100;-74
2023/03/05 08:14:44;;;;;;;0.30;0.30;;;;;;;;;;5054853;28;20467;-74
2023/03/05 08:17:09;;;;;;;3.15;2.95;;;;;;;;;;5071165;28;20060;-73
2023/03/05 08:19:34;;;;;;;2.50;1.77;;;;;;;;;;5072224;28;20376;-74
2023/03/05 08:22:00;;;;;;;0.40;0.40;;;;;;;;;;5071329;28;20036;-74
2023/03/05 08:24:28;;;;;;;0.85;0.82;;;;;;;;;;5071073;28;20036;-74
2023/03/05 08:26:55;;;;;;;0.50;0.40;;;;;;;;;;5072468;28;20482;-74
2023/03/05 08:29:20;;;;;;;6.07;5.75;;;;;;;;;;5070901;28;20033;-74
2023/03/05 08:31:46;;;;;;;0.10;0.10;;;;;;;;;;5070608;28;20052;-74
2023/03/05 08:34:11;;;;;;;0.10;0.10;;;;;;;;;;5070865;28;20034;-74
2023/03/05 08:36:37;;;;;;;0.20;0.20;;;;;;;;;;5070739;28;20040;-74
2023/03/05 08:39:02;;;;;;;0.10;0.10;;;;;;;;;;5072592;28;20040;-73
2023/03/05 08:41:28;;;;;;;0.22;0.22;;;;;;;;;;5070396;28;20460;-74
2023/03/05 08:43:53;;;;;;;0.10;0.10;;;;;;;;;;5071438;28;20028;-74
2023/03/05 08:46:19;;;;;;;1.98;1.88;;;;;;;;;;5054058;28;20483;-74
2023/03/05 08:48:44;;;;;;;0.30;0.30;;;;;;;;;;5071880;28;20032;-74
2023/03/05 08:51:12;;;;;;;0.10;0.10;;;;;;;;;;5070704;28;20108;-74
2023/03/05 08:53:38;;;;;;;0.10;0.10;;;;;;;;;;5071793;28;20109;-74
2023/03/05 08:56:03;;;;;;;0.10;0.10;;;;;;;;;;5071742;28;20920;-74
2023/03/05 08:58:29;;;;;;;0.10;0.10;;;;;;;;;;5072319;28;20020;-74
2023/03/05 09:00:55;;;;;;;0.25;0.25;;;;;;;;;;5071668;28;20079;-74
2023/03/05 09:03:20;;;;;;;0.32;0.32;;;;;;;;;;5071076;28;20419;-74
2023/03/05 09:05:46;;;;;;;0.30;0.30;;;;;;;;;;5070038;28;20471;-74
2023/03/05 09:08:11;;;;;;;0.63;0.63;;;;;;;;;;5071561;28;20020;-74
2023/03/05 09:10:37;;;;;;;0.20;0.20;;;;;;;;;;5071531;28;20024;-74
2023/03/05 09:13:03;;;;;;;2.85;1.60;;;;;;;;;;5071726;28;20025;-74
2023/03/05 09:15:29;;;;;;;5.60;2.65;;;;;;;;;;5053335;28;20037;-74
2023/03/05 09:17:54;;;;;;;0.85;0.82;;;;;;;;;;5052932;28;20055;-74
2023/03/05 09:20:20;;;;;;;2.75;1.70;;;;;;;;;;5071059;28;20056;-74
2023/03/05 09:22:45;;;;;;;4.07;2.47;;;;;;;;;;5069865;28;20118;-75
2023/03/05 09:25:11;;;;;;;0.10;0.10;;;;;;;;;;5070142;28;20093;-74
2023/03/05 09:27:36;;;;;;;0.10;0.10;;;;;;;;;;5069695;28;20017;-74
2023/03/05 09:30:03;;;;;;;0.20;0.20;;;;;;;;;;5070007;28;20108;-74
2023/03/05 09:32:28;;;;;;;0.28;0.28;;;;;;;;;;5069294;28;20080;-74
2023/03/05 09:34:54;;;;;;;0.20;0.20;;;;;;;;;;5053415;28;20906;-73
2023/03/05 09:37:19;;;;;;;0.10;0.10;;;;;;;;;;5069337;28;20032;-73
2023/03/05 09:39:45;;;;;;;0.10;0.10;;;;;;;;;;5069472;28;20086;-73
2023/03/05 09:42:22;;;;;;;0.47;0.47;;;;;;;;;;5069346;28;20067;-74
2023/03/05 09:44:57;;;;;;;0.20;0.20;;;;;;;;;;5069551;28;20115;-74
2023/03/05 09:47:45;;;;;;;0.17;0.17;;;;;;;;;;5069091;28;20085;-73
2023/03/05 09:50:23;;;;;;;0.20;0.20;;;;;;;;;;5070524;28;20094;-73
2023/03/05 09:52:48;;;;;;;1.73;1.38;;;;;;;;;;5069147;28;20021;-74
2023/03/05 09:55:21;;;;;;;2.33;1.67;;;;;;;;;;5070205;28;20527;-74
2023/03/05 09:57:53;;;;;;;7.35;4.40;;;;;;;;;;5052149;28;20028;-74
2023/03/05 10:00:19;;;;;;;4.70;3.58;;;;;;;;;;5070429;28;20035;-74
2023/03/05 10:02:52;;;;;;;3.97;1.80;;;;;;;;;;5070688;28;20028;-74
2023/03/05 10:05:23;;;;;;;0.30;0.30;;;;;;;;;;5070143;28;20040;-73
2023/03/05 10:07:54;;;;;;;8.10;4.90;;;;;;;;;;5070089;28;20056;-73
2023/03/05 10:10:38;;;;;;;0.10;0.10;;;;;;;;;;5068667;28;20123;-74
2023/03/05 10:13:09;;;;;;;0.25;0.25;;;;;;;;;;5070536;28;20020;-73
2023/03/05 10:15:35;;;;;;;5.35;3.65;;;;;;;;;;5070088;28;20040;-74
2023/03/05 10:18:12;;;;;;;1.88;1.35;;;;;;;;;;5069989;28;20464;-73
2023/03/05 10:20:51;;;;;;;4.55;1.98;;;;;;;;;;5069761;28;20111;-74
2023/03/05 10:23:26;;;;;;;0.10;0.10;;;;;;;;;;5052041;28;20024;-73
2023/03/05 10:25:54;;;;;;;1.33;1.08;;;;;;;;;;5070078;28;20082;-74
2023/03/05 10:28:22;;;;;;;7.22;3.17;;;;;;;;;;5070466;28;20028;-74
2023/03/05 10:30:55;;;;;;;3.40;1.63;;;;;;;;;;5069965;28;20032;-74
2023/03/05 10:33:20;;;;;;;1.35;0.98;;;;;;;;;;5068714;28;20079;-74
2023/03/05 10:35:48;;;;;;;3.17;2.20;;;;;;;;;;5070479;28;20064;-73
2023/03/05 10:38:14;;;;;;;2.55;1.42;;;;;;;;;;5070065;28;20028;-74
2023/03/05 10:40:41;;;;;;;0.20;0.20;;;;;;;;;;5069464;28;20101;-74
2023/03/05 10:43:13;;;;;;;7.82;3.45;;;;;;;;;;5051673;28;20028;-74
2023/03/05 10:45:46;;;;;;;6.40;3.35;;;;;;;;;;5068230;28;20521;-74
2023/03/05 10:48:30;;;;;;;0.20;0.20;;;;;;;;;;5068446;28;20107;-73
2023/03/05 10:51:00;;;;;;;5.95;2.67;;;;;;;;;;5069542;28;20375;-74
2023/03/05 10:53:27;;;;;;;0.85;0.57;;;;;;;;;;5068323;28;20032;-74
2023/03/05 10:55:55;;;;;;;1.48;1.00;;;;;;;;;;5068685;28;20058;-74
2023/03/05 10:58:21;;;;;;;1.73;1.58;;;;;;;;;;5068383;28;20048;-74
2023/03/05 11:01:01;;;;;;;0.20;0.20;;;;;;;;;;5067592;28;20033;-74
2023/03/05 11:03:44;;;;;;;4.95;1.80;;;;;;;;;;5067326;28;20033;-73
2023/03/05 11:06:10;;;;;;;4.90;3.30;;;;;;;;;;5066155;28;20055;-74
2023/03/05 11:08:36;;;;;;;4.07;1.85;;;;;;;;;;5066999;28;20027;-74
2023/03/05 11:11:10;;;;;;;6.93;4.15;;;;;;;;;;5066350;28;20028;-73
2023/03/05 11:13:37;;;;;;;5.63;3.72;;;;;;;;;;5067317;28;20383;-75
2023/03/05 11:16:04;;;;;;;3.13;1.67;;;;;;;;;;5066099;28;20032;-75
2023/03/05 11:18:36;;;;;;;4.90;3.25;;;;;;;;;;5068876;28;20111;-75
2023/03/05 11:21:22;;;;;;;4.35;2.22;;;;;;;;;;5049232;28;20060;-75
2023/03/05 11:24:02;;;;;;;4.68;2.17;;;;;;;;;;5066531;28;20049;-74
2023/03/05 11:26:28;;;;;;;2.55;1.77;;;;;;;;;;5066633;28;20086;-74
2023/03/05 11:28:53;;;;;;;0.98;0.47;;;;;;;;;;5067467;28;20025;-74
2023/03/05 11:31:22;;;;;;;5.47;2.70;;;;;;;;;;5067156;28;20055;-74
2023/03/05 11:33:56;;;;;;;7.50;2.60;;;;;;;;;;5066432;28;20029;-75
2023/03/05 11:36:24;;;;;;;1.33;0.73;;;;;;;;;;5069909;28;20271;-74
2023/03/05 11:38:51;;;;;;;2.92;1.48;;;;;;;;;;5068914;28;20042;-74
2023/03/05 11:41:19;;;;;;;4.75;3.35;;;;;;;;;;5068856;28;20025;-75
2023/03/05 11:43:44;;;;;;;6.45;3.13;;;;;;;;;;5067899;28;20040;-74
2023/03/05 11:46:11;;;;;;;5.18;2.70;;;;;;;;;;5068246;28;20480;-74
2023/03/05 11:48:37;;;;;;;6.28;3.20;;;;;;;;;;5066537;28;20376;-75
2023/03/05 11:51:09;;;;;;;4.55;2.88;;;;;;;;;;5051137;28;20036;-74
2023/03/05 11:53:36;;;;;;;8.60;2.80;;;;;;;;;;5048147;28;20477;-74
2023/03/05 11:56:04;;;;;;;6.50;3.40;;;;;;;;;;5047650;28;20029;-74
2023/03/05 11:58:36;;;;;;;8.32;2.22;;;;;;;;;;5049257;28;20427;-74
2023/03/05 12:01:02;;;;;;;4.40;2.15;;;;;;;;;;5048813;28;20419;-75
2023/03/05 12:03:29;;;;;;;2.05;1.15;;;;;;;;;;5047345;28;20411;-74
2023/03/05 12:06:12;;;;;;;3.45;2.00;;;;;;;;;;5049009;28;20396;-74
2023/03/05 12:08:40;;;;;;;2.63;1.80;;;;;;;;;;5047699;28;20116;-75
2023/03/05 12:11:11;;;;;;;0.63;0.47;;;;;;;;;;5030490;28;20061;-74
2023/03/05 12:13:40;;;;;;;0.35;0.35;;;;;;;;;;5047489;28;20033;-75
2023/03/05 12:16:25;;;;;;;2.10;1.50;;;;;;;;;;5047650;28;20083;-74
2023/03/05 12:18:54;;;;;;;5.43;2.03;;;;;;;;;;5058284;28;20032;-73
2023/03/05 12:21:27;;;;;;;5.45;3.10;;;;;;;;;;5057673;28;20103;-74
2023/03/05 12:23:57;;;;;;;7.43;2.75;;;;;;;;;;5072331;28;20060;-74
2023/03/05 12:26:42;;;;;;;0.45;0.30;;;;;;;;;;5063407;28;20029;-75
2023/03/05 12:29:25;;;;;;;6.47;3.17;;;;;;;;;;5050631;28;20083;-74
2023/03/05 12:31:50;;;;;;;2.88;1.65;;;;;;;;;;5050725;28;20519;-74
2023/03/05 12:34:39;;;;;;;1.15;1.00;;;;;;;;;;5051030;28;20061;-75
2023/03/05 12:37:24;;;;;;;4.75;1.88;;;;;;;;;;5054858;28;20087;-75
2023/03/05 12:40:03;;;;;;;2.92;1.73;;;;;;;;;;5055156;28;20128;-75
2023/03/05 12:42:28;;;;;;;3.33;1.83;;;;;;;;;;5052074;28;20033;-74
2023/03/05 12:45:13;;;;;;;2.67;1.10;;;;;;;;;;5051978;28;20221;-75
2023/03/05 12:47:43;;;;;;;8.60;2.70;;;;;;;;;;5050515;28;20025;-75
2023/03/05 12:50:27;;;;;;;2.67;1.50;;;;;;;;;;5052111;28;20115;-75
2023/03/05 12:52:52;;;;;;;4.57;1.98;;;;;;;;;;5067318;28;20036;-74
2023/03/05 12:55:28;;;;;;;2.03;1.42;;;;;;;;;;5064109;28;20025;-75
2023/03/05 12:58:00;;;;;;;4.40;1.67;;;;;;;;;;5051951;28;20033;-75
2023/03/05 13:00:44;;;;;;;6.90;2.85;;;;;;;;;;5053415;28;20028;-74
2023/03/05 13:03:17;;;;;;;3.63;2.03;;;;;;;;;;5064212;28;20362;-75
2023/03/05 13:05:50;;;;;;;3.72;2.00;;;;;;;;;;5051385;28;20074;-74
2023/03/05 13:08:21;;;;;;;3.47;1.63;;;;;;;;;;5051455;28;20025;-75
2023/03/05 13:10:51;;;;;;;1.45;0.75;;;;;;;;;;5053017;28;20037;-74
2023/03/05 13:13:25;;;;;;;1.17;1.08;;;;;;;;;;5050859;28;20064;-75
2023/03/05 13:15:51;;;;;;;4.00;2.00;;;;;;;;;;5057167;28;20048;-75
2023/03/05 13:18:23;;;;;;;1.75;0.80;;;;;;;;;;5065342;28;20020;-76
2023/03/05 13:21:01;;;;;;;0.20;0.20;;;;;;;;;;5054400;28;20032;-74
2023/03/05 13:23:26;;;;;;;5.03;1.67;;;;;;;;;;5056011;28;20419;-75
2023/03/05 13:25:57;;;;;;;9.15;0.90;;;;;;;;;;5053589;28;20074;-75
2023/03/05 13:28:22;;;;;;;4.03;1.25;;;;;;;;;;5061018;28;20032;-74
2023/03/05 13:30:52;;;;;;;7.40;2.13;;;;;;;;;;5051623;28;20025;-74
2023/03/05 13:33:24;;;;;;;2.53;1.08;;;;;;;;;;5049360;28;20045;-74
2023/03/05 13:35:49;;;;;;;1.17;0.68;;;;;;;;;;5049899;28;20485;-74
2023/03/05 13:38:23;;;;;;;5.10;2.55;;;;;;;;;;5051155;28;20021;-75
2023/03/05 13:41:03;;;;;;;1.40;0.52;;;;;;;;;;5053045;28;20107;-74
2023/03/05 13:43:28;;;;;;;;;;;;;;;;;;5058504;28;20347;-75
2023/03/05 13:45:55;;;;;;;0.30;0.30;;;;;;;;;;5061791;28;19912;-75
2023/03/05 13:48:20;;;;;;;6.20;1.92;;;;;;;;;;5049588;28;20291;-75
2023/03/05 13:50:52;;;;;;;2.55;1.55;;;;;;;;;;5050854;28;20102;-75
2023/03/05 13:53:27;;;;;;;0.88;0.73;;;;;;;;;;5056516;28;20032;-75
2023/03/05 13:55:55;;;;;;;3.13;1.35;;;;;;;;;;5059073;28;20104;-75
2023/03/05 13:58:40;;;;;;;5.50;1.38;;;;;;;;;;5053897;28;20127;-75
2023/03/05 14:01:12;;;;;;;4.53;1.88;;;;;;;;;;5056837;28;20051;-75
2023/03/05 14:03:37;;;;;;;2.10;0.80;;;;;;;;;;5049016;28;20040;-75
2023/03/05 14:06:07;;;;;;;0.10;0.10;;;;;;;;;;5050144;28;20372;-75
2023/03/05 14:08:32;;;;;;;1.65;1.20;;;;;;;;;;5049232;28;20036;-75
2023/03/05 14:11:09;;;;;;;1.88;1.17;;;;;;;;;;5050906;28;20017;-75
2023/03/05 14:13:35;;;;;;;5.25;2.05;;;;;;;;;;5050215;28;20115;-74
2023/03/05 14:16:11;;;;;;;0.40;0.40;;;;;;;;;;5050119;28;20171;-74
2023/03/05 14:18:37;;;;;;;4.82;1.70;;;;;;;;;;5047332;28;20055;-74
2023/03/05 14:21:10;;;;;;;3.35;1.77;;;;;;;;;;5046958;28;20048;-74
2023/03/05 14:23:35;;;;;;;5.38;1.08;;;;;;;;;;5046636;28;20507;-74
2023/03/05 14:26:20;;;;;;;7.63;1.55;;;;;;;;;;5048205;28;20029;-74
2023/03/05 14:28:54;;;;;;;3.65;1.58;;;;;;;;;;5047978;28;20037;-75
2023/03/05 14:31:20;;;;;;;3.55;1.55;;;;;;;;;;5048152;28;20053;-75
2023/03/05 14:33:46;;;;;;;6.38;2.55;;;;;;;;;;5032077;28;20102;-75
2023/03/05 14:36:11;;;;;;;2.78;1.48;;;;;;;;;;5048724;28;20465;-75
2023/03/05 14:38:41;;;;;;;5.57;2.70;;;;;;;;;;5050068;28;20476;-74
2023/03/05 14:41:19;;;;;;;8.35;2.13;;;;;;;;;;5048485;28;20079;-74
2023/03/05 14:43:45;;;;;;;1.00;0.88;;;;;;;;;;5047835;28;20045;-75
2023/03/05 14:46:10;;;;;;;0.45;0.45;;;;;;;;;;5049467;28;20036;-75